createdAt,value
2022-11-21T00:01:46.812Z,16.43
2022-11-21T00:04:15.546Z,17.13
2022-11-21T00:06:44.038Z,16.57
2022-11-21T00:09:12.592Z,18.30
2022-11-21T00:11:41.037Z,15.20
2022-11-21T00:14:09.519Z,13.70
2022-11-21T00:16:39.460Z,15.03
2022-11-21T00:19:07.788Z,16.33
2022-11-21T00:21:36.352Z,13.77
2022-11-21T00:24:05.187Z,15.27
2022-11-21T00:26:33.790Z,15.93
2022-11-21T00:29:02.383Z,11.73
2022-11-21T00:31:31.472Z,13.77
2022-11-21T00:34:01.532Z,18.40
2022-11-21T00:36:30.067Z,18.10
2022-11-21T00:38:58.567Z,17.57
2022-11-21T00:41:26.984Z,19.60
2022-11-21T00:43:55.531Z,16.47
2022-11-21T00:46:24.009Z,16.97
2022-11-21T00:48:52.355Z,21.20
2022-11-21T00:51:22.198Z,23.57
2022-11-21T00:53:50.710Z,21.53
2022-11-21T00:56:19.114Z,18.63
2022-11-21T00:58:47.617Z,22.93
2022-11-21T01:01:17.092Z,24.10
2022-11-21T01:03:47.088Z,18.30
2022-11-21T01:06:18.680Z,18.53
2022-11-21T01:08:48.654Z,22.27
2022-11-21T01:11:19.107Z,20.47
2022-11-21T01:13:48.762Z,27.13
2022-11-21T01:16:18.649Z,23.03
2022-11-21T01:18:47.959Z,18.47
2022-11-21T01:21:18.870Z,20.17
2022-11-21T01:23:49.074Z,19.47
2022-11-21T01:26:19.298Z,22.73
2022-11-21T01:28:48.494Z,26.37
2022-11-21T01:31:19.730Z,25.40
2022-11-21T01:33:48.973Z,24.47
2022-11-21T01:36:19.294Z,24.93
2022-11-21T01:38:50.674Z,24.97
2022-11-21T01:41:23.525Z,21.80
2022-11-21T01:43:52.469Z,18.27
2022-11-21T01:46:22.310Z,19.37
2022-11-21T01:48:56.517Z,23.30
2022-11-21T01:51:29.790Z,21.43
2022-11-21T01:54:06.663Z,24.87
2022-11-21T01:56:41.431Z,27.10
2022-11-21T01:59:16.348Z,20.57
2022-11-21T02:01:45.926Z,22.87
2022-11-21T02:04:14.673Z,25.30
2022-11-21T02:06:43.462Z,25.13
2022-11-21T02:09:13.854Z,18.97
2022-11-21T02:11:45.628Z,23.57
2022-11-21T02:14:35.019Z,21.53
2022-11-21T02:17:07.536Z,18.50
2022-11-21T02:19:44.702Z,20.80
2022-11-21T02:22:19.998Z,24.90
2022-11-21T02:24:58.933Z,21.87
2022-11-21T02:27:27.377Z,25.93
2022-11-21T02:30:17.390Z,26.20
2022-11-21T02:32:48.030Z,22.70
2022-11-21T02:35:18.835Z,22.20
2022-11-21T02:37:49.371Z,21.77
2022-11-21T02:40:25.593Z,22.73
2022-11-21T02:43:19.291Z,20.93
2022-11-21T02:45:48.620Z,23.03
2022-11-21T02:48:17.495Z,23.07
2022-11-21T02:50:48.073Z,18.17
2022-11-21T02:53:18.971Z,28.37
2022-11-21T02:55:49.230Z,22.77
2022-11-21T02:58:17.986Z,22.47
2022-11-21T03:00:47.210Z,24.60
2022-11-21T03:03:15.888Z,26.07
2022-11-21T03:05:44.938Z,22.77
2022-11-21T03:08:13.987Z,20.00
2022-11-21T03:10:42.842Z,21.83
2022-11-21T03:13:13.217Z,22.63
2022-11-21T03:15:41.944Z,22.67
2022-11-21T03:18:10.897Z,18.07
2022-11-21T03:20:40.653Z,18.00
2022-11-21T03:23:09.765Z,17.73
2022-11-21T03:25:38.810Z,20.40
2022-11-21T03:28:07.506Z,24.30
2022-11-21T03:30:40.522Z,25.40
2022-11-21T03:33:09.810Z,24.17
2022-11-21T03:35:38.373Z,21.07
2022-11-21T03:38:06.981Z,23.40
2022-11-21T03:40:35.686Z,19.90
2022-11-21T03:43:06.701Z,22.97
2022-11-21T03:45:38.706Z,19.37
2022-11-21T03:48:09.552Z,19.67
2022-11-21T03:50:39.337Z,24.50
2022-11-21T03:53:07.894Z,19.03
2022-11-21T03:55:36.432Z,21.50
2022-11-21T03:58:05.113Z,20.87
2022-11-21T04:00:33.585Z,20.57
2022-11-21T04:03:03.717Z,22.80
2022-11-21T04:05:32.237Z,23.07
2022-11-21T04:08:00.796Z,18.27
2022-11-21T04:10:29.378Z,20.93
2022-11-21T04:12:58.053Z,20.70
2022-11-21T04:15:26.740Z,24.70
2022-11-21T04:17:55.230Z,18.80
2022-11-21T04:20:25.203Z,21.90
2022-11-21T04:22:53.725Z,25.40
2022-11-21T04:25:22.297Z,22.17
2022-11-21T04:27:50.907Z,20.40
2022-11-21T04:30:19.539Z,20.67
2022-11-21T04:32:49.692Z,19.23
2022-11-21T04:35:18.320Z,24.07
2022-11-21T04:37:48.504Z,14.67
2022-11-21T04:40:17.912Z,19.10
2022-11-21T04:42:48.121Z,20.33
2022-11-21T04:45:18.066Z,23.20
2022-11-21T04:47:49.776Z,17.37
2022-11-21T04:50:19.822Z,21.57
2022-11-21T04:52:53.315Z,22.40
2022-11-21T04:55:22.405Z,20.80
2022-11-21T04:57:50.903Z,18.80
2022-11-21T05:00:24.231Z,19.20
2022-11-21T05:02:53.234Z,20.90
2022-11-21T05:05:21.880Z,23.03
2022-11-21T05:07:51.937Z,20.73
2022-11-21T05:10:20.359Z,21.77
2022-11-21T05:13:05.946Z,21.40
2022-11-21T05:15:34.538Z,20.57
2022-11-21T05:18:03.153Z,21.03
2022-11-21T05:20:35.759Z,25.30
2022-11-21T05:23:07.080Z,21.07
2022-11-21T05:25:35.831Z,21.93
2022-11-21T05:28:04.484Z,24.57
2022-11-21T05:30:33.273Z,17.87
2022-11-21T05:33:01.849Z,22.03
2022-11-21T05:35:30.517Z,18.77
2022-11-21T05:37:59.653Z,18.10
2022-11-21T05:40:29.705Z,24.67
2022-11-21T05:43:15.999Z,21.17
2022-11-21T05:45:45.065Z,22.03
2022-11-21T05:48:14.077Z,19.47
2022-11-21T05:50:50.663Z,23.00
2022-11-21T05:53:19.827Z,18.03
2022-11-21T05:55:50.026Z,24.27
2022-11-21T05:58:18.894Z,19.83
2022-11-21T06:00:47.790Z,18.40
2022-11-21T06:03:28.471Z,20.37
2022-11-21T06:06:23.718Z,26.17
2022-11-21T06:08:53.721Z,21.17
2022-11-21T06:11:23.993Z,21.03
2022-11-21T06:13:53.713Z,19.83
2022-11-21T06:16:22.506Z,20.00
2022-11-21T06:18:56.806Z,21.57
2022-11-21T06:21:29.125Z,25.17
2022-11-21T06:23:59.236Z,19.40
2022-11-21T06:26:29.670Z,19.60
2022-11-21T06:28:58.342Z,20.07
2022-11-21T06:31:28.525Z,19.57
2022-11-21T06:33:58.342Z,20.53
2022-11-21T06:36:27.677Z,20.60
2022-11-21T06:38:57.470Z,22.20
2022-11-21T06:41:30.344Z,23.10
2022-11-21T06:44:00.949Z,21.63
2022-11-21T22:30:42.347Z,11.63
2022-11-21T22:33:10.904Z,6.90
2022-11-21T22:35:39.334Z,8.30
2022-11-21T22:38:07.778Z,9.33
2022-11-21T22:40:36.160Z,10.97
2022-11-21T22:43:04.621Z,6.70
2022-11-21T22:45:35.178Z,11.70
2022-11-21T22:48:05.744Z,7.90
2022-11-21T22:50:34.785Z,8.17
2022-11-21T22:53:03.115Z,8.47
2022-11-21T22:55:31.569Z,10.53
2022-11-21T22:57:59.998Z,10.13
2022-11-21T23:00:28.441Z,9.63
2022-11-21T23:02:56.777Z,8.47
2022-11-21T23:05:27.568Z,9.23
2022-11-21T23:07:56.396Z,7.83
2022-11-21T23:10:24.718Z,7.73
2022-11-21T23:12:53.117Z,8.43
2022-11-21T23:15:21.634Z,8.80
2022-11-21T23:17:52.638Z,6.07
2022-11-21T23:20:21.311Z,6.23
2022-11-21T23:22:51.328Z,7.90
2022-11-21T23:25:19.782Z,8.77
2022-11-21T23:27:48.189Z,8.53
2022-11-21T23:30:17.213Z,9.60
2022-11-21T23:32:45.766Z,9.20
2022-11-21T23:35:17.879Z,10.97
2022-11-21T23:37:48.283Z,9.57
2022-11-21T23:40:18.256Z,10.97
2022-11-21T23:42:47.172Z,11.83
2022-11-21T23:45:16.010Z,6.33
2022-11-21T23:48:07.973Z,7.87
2022-11-21T23:50:36.368Z,7.00
2022-11-21T23:53:04.801Z,8.67
2022-11-21T23:55:34.648Z,8.27
2022-11-21T23:58:03.369Z,7.80
